Time;durP1;ratioP1;P1;durP2;ratioP2;P2;SDS_P1;SDS_P2;PMS_P1;PMS_P2;Temp;Humidity;BMP_temperature;BMP_pressure;BME280_temperature;BME280_humidity;BME280_pressure;Samples;Min_cycle;Max_cycle;Signal;HPM_P1;HPM_P2
2022/06/29 00:00:24;;;;;;;0.00;0.00;;;16.70;99.90;;;;;;4988344;28;20085;-58
2022/06/29 00:02:50;;;;;;;0.00;0.00;;;16.70;99.90;;;;;;4987419;28;20059;-59
2022/06/29 00:05:18;;;;;;;0.00;0.00;;;16.60;99.90;;;;;;4988316;28;20050;-56
2022/06/29 00:07:45;;;;;;;0.00;0.00;;;16.60;99.90;;;;;;5004047;28;20101;-59
2022/06/29 00:10:13;;;;;;;0.00;0.00;;;16.60;99.90;;;;;;4988449;28;20455;-59
2022/06/29 00:12:40;;;;;;;0.00;0.00;;;16.60;99.90;;;;;;4987987;28;20122;-59
2022/06/29 00:15:07;;;;;;;0.00;0.00;;;16.60;99.90;;;;;;4986912;28;20046;-59
2022/06/29 00:17:33;;;;;;;0.00;0.00;;;16.50;99.90;;;;;;4987024;28;20049;-58
2022/06/29 00:20:00;;;;;;;0.00;0.00;;;16.50;99.90;;;;;;4987760;28;20043;-58
2022/06/29 00:22:26;;;;;;;0.00;0.00;;;16.50;99.90;;;;;;4987605;28;20508;-59
2022/06/29 00:24:52;;;;;;;0.00;0.00;;;16.40;99.90;;;;;;4987934;28;20513;-59
2022/06/29 00:27:18;;;;;;;0.00;0.00;;;16.40;99.90;;;;;;4986493;28;20082;-58
2022/06/29 00:29:43;;;;;;;0.00;0.00;;;16.50;99.90;;;;;;4987946;28;20053;-58
2022/06/29 00:32:09;;;;;;;0.00;0.00;;;16.40;99.90;;;;;;4986823;28;20042;-59
2022/06/29 00:34:35;;;;;;;0.00;0.00;;;16.40;99.90;;;;;;4987596;28;20042;-59
2022/06/29 00:37:01;;;;;;;0.00;0.00;;;16.30;99.90;;;;;;4987590;28;20046;-58
2022/06/29 00:39:27;;;;;;;0.00;0.00;;;16.30;99.90;;;;;;4987253;28;20081;-58
2022/06/29 00:41:53;;;;;;;0.00;0.00;;;16.20;99.90;;;;;;4986271;28;20046;-59
2022/06/29 00:44:20;;;;;;;0.00;0.00;;;16.20;99.90;;;;;;4989723;28;20382;-58
2022/06/29 00:47:00;;;;;;;0.00;0.00;;;16.20;99.90;;;;;;4995380;28;20050;-58
2022/06/29 00:49:28;;;;;;;0.00;0.00;;;16.20;99.90;;;;;;4986024;28;20552;-58
2022/06/29 00:52:06;;;;;;;0.00;0.00;;;16.20;99.90;;;;;;4987437;28;20049;-59
2022/06/29 00:54:54;;;;;;;0.00;0.00;;;16.20;99.90;;;;;;4987669;28;20042;-58
2022/06/29 00:57:26;;;;;;;0.00;0.00;;;16.20;99.90;;;;;;4985555;28;20528;-58
2022/06/29 00:59:57;;;;;;;0.00;0.00;;;16.20;99.90;;;;;;4987506;28;20138;-59
2022/06/29 01:02:25;;;;;;;0.00;0.00;;;16.20;99.90;;;;;;4986011;28;20050;-58
2022/06/29 01:04:52;;;;;;;0.00;0.00;;;16.20;99.90;;;;;;4985746;28;20042;-58
2022/06/29 01:07:26;;;;;;;0.00;0.00;;;16.20;99.90;;;;;;4987100;28;20050;-58
2022/06/29 01:09:52;;;;;;;0.00;0.00;;;16.20;99.90;;;;;;4987020;28;20544;-57
2022/06/29 01:12:18;;;;;;;0.00;0.00;;;16.20;99.90;;;;;;4987078;28;20042;-58
2022/06/29 01:14:46;;;;;;;0.00;0.00;;;16.20;99.90;;;;;;4987594;28;20104;-58
2022/06/29 01:17:12;;;;;;;0.00;0.00;;;16.10;99.90;;;;;;4986176;28;20125;-58
2022/06/29 01:19:38;;;;;;;0.00;0.00;;;16.10;99.90;;;;;;4986963;28;20084;-58
2022/06/29 01:22:11;;;;;;;0.00;0.00;;;16.10;99.90;;;;;;4986302;28;20045;-58
2022/06/29 01:24:38;;;;;;;0.00;0.00;;;16.10;99.90;;;;;;4987046;28;20097;-59
2022/06/29 01:27:04;;;;;;;0.00;0.00;;;16.00;99.90;;;;;;4986714;28;20061;-58
2022/06/29 01:29:30;;;;;;;0.00;0.00;;;16.00;99.90;;;;;;4986310;28;20038;-58
2022/06/29 01:31:56;;;;;;;0.00;0.00;;;16.00;99.90;;;;;;4985873;28;20052;-58
2022/06/29 01:34:23;;;;;;;0.00;0.00;;;16.00;99.90;;;;;;4985428;28;20057;-58
2022/06/29 01:36:49;;;;;;;0.00;0.00;;;16.00;99.90;;;;;;4986708;28;20054;-59
2022/06/29 01:39:15;;;;;;;0.00;0.00;;;15.90;99.90;;;;;;4986359;28;20081;-59
2022/06/29 01:41:41;;;;;;;0.00;0.00;;;15.90;99.90;;;;;;4987251;28;20104;-59
2022/06/29 01:44:06;;;;;;;0.00;0.00;;;16.00;99.90;;;;;;4988680;28;20108;-58
2022/06/29 01:46:34;;;;;;;0.00;0.00;;;15.90;99.90;;;;;;4995051;28;20046;-57
2022/06/29 01:48:59;;;;;;;0.00;0.00;;;15.90;99.90;;;;;;4985037;28;20512;-58
2022/06/29 01:51:25;;;;;;;0.00;0.00;;;15.90;99.90;;;;;;4986140;28;20088;-58
2022/06/29 01:53:51;;;;;;;0.00;0.00;;;15.80;99.90;;;;;;4986667;28;20129;-56
2022/06/29 01:56:16;;;;;;;0.00;0.00;;;15.80;99.90;;;;;;4986151;28;20050;-54
2022/06/29 01:58:42;;;;;;;0.00;0.00;;;15.80;99.90;;;;;;4985393;28;20053;-58
2022/06/29 02:01:08;;;;;;;0.00;0.00;;;15.80;99.90;;;;;;4985755;28;20050;-59
2022/06/29 02:03:35;;;;;;;0.00;0.00;;;15.70;99.90;;;;;;4985172;28;20394;-58
2022/06/29 02:06:02;;;;;;;0.00;0.00;;;15.70;99.90;;;;;;4985535;28;20057;-58
2022/06/29 02:08:27;;;;;;;0.00;0.00;;;15.80;99.90;;;;;;4985952;28;20112;-59
2022/06/29 02:10:53;;;;;;;0.00;0.00;;;15.70;99.90;;;;;;4985908;28;20497;-58
2022/06/29 02:13:19;;;;;;;0.00;0.00;;;15.80;99.90;;;;;;4985787;28;20046;-59
2022/06/29 02:15:45;;;;;;;0.00;0.00;;;15.70;99.90;;;;;;4986142;28;20046;-58
2022/06/29 02:18:10;;;;;;;0.00;0.00;;;15.80;99.90;;;;;;4985145;28;20042;-58
2022/06/29 02:20:36;;;;;;;0.00;0.00;;;15.70;99.90;;;;;;4985918;28;20569;-58
2022/06/29 02:23:02;;;;;;;0.00;0.00;;;15.70;99.90;;;;;;4985629;28;20137;-58
2022/06/29 02:25:27;;;;;;;0.00;0.00;;;15.70;99.90;;;;;;4985793;28;20150;-59
2022/06/29 02:27:53;;;;;;;0.00;0.00;;;15.70;99.90;;;;;;4984597;28;20061;-58
2022/06/29 02:30:19;;;;;;;0.00;0.00;;;15.70;99.90;;;;;;4985416;28;20046;-58
2022/06/29 02:35:31;;;;;;;0.00;0.00;;;15.60;99.90;;;;;;4985431;28;20054;-58
2022/06/29 02:37:56;;;;;;;0.00;0.00;;;15.60;99.90;;;;;;4985627;28;20060;-58
2022/06/29 02:40:22;;;;;;;0.00;0.00;;;15.60;99.90;;;;;;4983792;28;20054;-58
2022/06/29 02:42:48;;;;;;;0.00;0.00;;;15.60;99.90;;;;;;4985468;28;20125;-59
2022/06/29 02:45:14;;;;;;;0.00;0.00;;;15.60;99.90;;;;;;4991248;28;20042;-58
2022/06/29 02:47:39;;;;;;;0.00;0.00;;;15.60;99.90;;;;;;4988598;28;20050;-58
2022/06/29 02:50:05;;;;;;;0.00;0.00;;;15.70;99.90;;;;;;4985107;28;21068;-59
2022/06/29 02:52:31;;;;;;;0.00;0.00;;;15.60;99.90;;;;;;4985478;28;20042;-58
2022/06/29 02:54:56;;;;;;;0.00;0.00;;;15.60;99.90;;;;;;4985573;28;20046;-58
2022/06/29 02:57:24;;;;;;;0.00;0.00;;;15.60;99.90;;;;;;4985085;28;20485;-58
2022/06/29 02:59:50;;;;;;;0.00;0.00;;;15.60;99.90;;;;;;4985565;28;20054;-58
2022/06/29 03:02:16;;;;;;;0.00;0.00;;;15.50;99.90;;;;;;4982697;28;20050;-57
2022/06/29 03:04:41;;;;;;;0.00;0.00;;;15.50;99.90;;;;;;4986008;28;20089;-56
2022/06/29 03:07:07;;;;;;;0.00;0.00;;;15.50;99.90;;;;;;4985136;28;20121;-59
2022/06/29 03:09:32;;;;;;;0.00;0.00;;;15.50;99.90;;;;;;4985147;28;20074;-59
2022/06/29 03:11:58;;;;;;;0.00;0.00;;;15.50;99.90;;;;;;4984974;28;20137;-58
2022/06/29 03:14:24;;;;;;;0.00;0.00;;;15.50;99.90;;;;;;4988202;28;20720;-58
2022/06/29 03:16:50;;;;;;;0.00;0.00;;;15.40;99.90;;;;;;4988410;28;20043;-58
2022/06/29 03:19:15;;;;;;;0.00;0.00;;;15.40;99.90;;;;;;4989496;28;20058;-55
2022/06/29 03:21:41;;;;;;;0.00;0.00;;;15.50;99.90;;;;;;4989520;28;20093;-54
2022/06/29 03:24:07;;;;;;;0.00;0.00;;;15.40;99.90;;;;;;4987776;28;20042;-58
2022/06/29 03:26:33;;;;;;;0.00;0.00;;;15.40;99.90;;;;;;4988812;28;20092;-58
2022/06/29 03:28:58;;;;;;;0.00;0.00;;;15.40;99.90;;;;;;4988824;28;20046;-58
2022/06/29 03:31:24;;;;;;;0.00;0.00;;;15.40;99.90;;;;;;4987982;28;20532;-57
2022/06/29 03:33:50;;;;;;;0.00;0.00;;;15.40;99.90;;;;;;4988693;28;20047;-58
2022/06/29 03:36:16;;;;;;;0.00;0.00;;;15.40;99.90;;;;;;4988746;28;20053;-53
2022/06/29 03:38:42;;;;;;;0.00;0.00;;;15.50;99.90;;;;;;4989459;28;20472;-57
2022/06/29 03:41:07;;;;;;;0.00;0.00;;;15.50;99.90;;;;;;4987452;28;20137;-58
2022/06/29 03:43:33;;;;;;;0.00;0.00;;;15.50;99.90;;;;;;4987005;28;20122;-58
2022/06/29 03:45:59;;;;;;;0.00;0.00;;;15.50;99.90;;;;;;4999252;28;20068;-57
2022/06/29 03:48:25;;;;;;;0.00;0.00;;;15.50;99.90;;;;;;4987876;28;20555;-57
2022/06/29 03:50:50;;;;;;;0.00;0.00;;;15.60;99.90;;;;;;4988714;28;20410;-55
2022/06/29 03:53:16;;;;;;;0.00;0.00;;;15.60;99.90;;;;;;4988398;28;20026;-58
2022/06/29 03:55:42;;;;;;;0.00;0.00;;;15.60;99.90;;;;;;4988891;28;20081;-58
2022/06/29 03:58:08;;;;;;;0.00;0.00;;;15.60;99.90;;;;;;4988368;28;20061;-58
2022/06/29 04:00:34;;;;;;;0.00;0.00;;;15.60;99.90;;;;;;4987891;28;20109;-58
2022/06/29 04:03:00;;;;;;;0.00;0.00;;;15.60;99.90;;;;;;4987424;28;20120;-58
2022/06/29 04:05:26;;;;;;;0.00;0.00;;;15.60;99.90;;;;;;4988236;28;20673;-58
2022/06/29 04:07:51;;;;;;;0.00;0.00;;;15.70;99.90;;;;;;4988458;28;20068;-57
2022/06/29 04:10:17;;;;;;;0.00;0.00;;;15.60;99.90;;;;;;4986450;28;20506;-57
2022/06/29 04:12:43;;;;;;;0.00;0.00;;;15.70;99.90;;;;;;4988599;28;20046;-59
2022/06/29 04:15:09;;;;;;;0.00;0.00;;;15.60;99.90;;;;;;4987881;28;20046;-57
2022/06/29 04:17:35;;;;;;;0.00;0.00;;;15.70;99.90;;;;;;4987691;28;20140;-59
2022/06/29 04:20:02;;;;;;;0.00;0.00;;;15.70;99.90;;;;;;4986183;28;20054;-58
2022/06/29 04:22:28;;;;;;;0.00;0.00;;;15.70;99.90;;;;;;4988254;28;20436;-59
2022/06/29 04:24:54;;;;;;;0.00;0.00;;;15.70;99.90;;;;;;4986252;28;20042;-58
2022/06/29 04:27:20;;;;;;;0.00;0.00;;;15.80;99.90;;;;;;4987349;28;20042;-58
2022/06/29 04:29:46;;;;;;;0.00;0.00;;;15.90;99.90;;;;;;4987782;28;20050;-59
2022/06/29 04:32:12;;;;;;;0.00;0.00;;;15.90;99.90;;;;;;4987639;28;20042;-58
2022/06/29 04:34:37;;;;;;;0.00;0.00;;;16.00;99.90;;;;;;4987773;28;20038;-58
2022/06/29 04:37:03;;;;;;;0.00;0.00;;;16.00;99.90;;;;;;4987658;28;20047;-58
2022/06/29 04:39:29;;;;;;;0.00;0.00;;;16.10;99.90;;;;;;4987478;28;20081;-58
2022/06/29 04:41:55;;;;;;;0.00;0.00;;;16.10;99.90;;;;;;4987455;28;20126;-59
2022/06/29 04:44:21;;;;;;;0.00;0.00;;;16.30;99.90;;;;;;4989663;28;20060;-58
2022/06/29 04:46:46;;;;;;;0.00;0.00;;;16.40;99.90;;;;;;4995317;28;20046;-58
2022/06/29 04:49:12;;;;;;;0.00;0.00;;;16.50;99.90;;;;;;4987842;28;20409;-58
2022/06/29 04:51:38;;;;;;;0.00;0.00;;;16.50;99.90;;;;;;4987407;28;20129;-58
2022/06/29 04:54:04;;;;;;;0.00;0.00;;;16.60;99.90;;;;;;4986099;28;20038;-58
2022/06/29 04:56:34;;;;;;;0.00;0.00;;;16.80;99.90;;;;;;4987055;28;20050;-59
2022/06/29 04:59:01;;;;;;;0.00;0.00;;;17.30;99.90;;;;;;4986990;28;20042;-63
2022/06/29 05:01:28;;;;;;;0.00;0.00;;;17.90;99.90;;;;;;4986290;28;20046;-58
2022/06/29 05:03:55;;;;;;;0.00;0.00;;;18.40;99.90;;;;;;4985596;28;20091;-58
2022/06/29 05:06:21;;;;;;;0.00;0.00;;;18.70;99.90;;;;;;4986812;28;20054;-58
2022/06/29 05:08:48;;;;;;;0.00;0.00;;;18.50;99.90;;;;;;4987006;28;20092;-58
2022/06/29 05:11:15;;;;;;;0.00;0.00;;;18.30;99.90;;;;;;4986705;28;20397;-58
2022/06/29 05:13:45;;;;;;;0.00;0.00;;;17.90;99.90;;;;;;4985372;28;20053;-59
2022/06/29 05:16:11;;;;;;;0.00;0.00;;;17.60;99.90;;;;;;4985100;28;20497;-57
2022/06/29 05:18:37;;;;;;;0.00;0.00;;;17.40;99.90;;;;;;4986102;28;20103;-59
2022/06/29 05:21:03;;;;;;;0.00;0.00;;;17.20;99.90;;;;;;4986069;28;20046;-59
2022/06/29 05:23:30;;;;;;;0.00;0.00;;;17.20;99.90;;;;;;4986603;28;20520;-58
2022/06/29 05:25:56;;;;;;;0.00;0.00;;;17.10;99.90;;;;;;4986356;28;20485;-57
2022/06/29 05:28:22;;;;;;;0.00;0.00;;;17.10;99.90;;;;;;4986152;28;20050;-58
2022/06/29 05:30:49;;;;;;;0.00;0.00;;;17.20;99.90;;;;;;4986774;28;20050;-58
2022/06/29 05:33:14;;;;;;;0.00;0.00;;;17.60;99.90;;;;;;4985970;28;20090;-58
2022/06/29 05:35:40;;;;;;;0.00;0.00;;;17.80;99.90;;;;;;4985720;28;20101;-59
2022/06/29 05:38:06;;;;;;;0.00;0.00;;;17.90;99.90;;;;;;4985901;28;20105;-58
2022/06/29 05:40:31;;;;;;;0.00;0.00;;;18.00;99.90;;;;;;4985964;28;20046;-58
2022/06/29 05:42:57;;;;;;;0.00;0.00;;;18.10;99.90;;;;;;4984654;28;20057;-57
2022/06/29 05:45:25;;;;;;;0.10;0.00;;;18.20;99.90;;;;;;4994058;28;20385;-58
2022/06/29 05:47:52;;;;;;;0.00;0.00;;;18.10;99.90;;;;;;4986668;28;20049;-54
2022/06/29 05:50:19;;;;;;;0.00;0.00;;;18.20;99.90;;;;;;4985959;28;20113;-58
2022/06/29 05:52:44;;;;;;;0.00;0.00;;;18.30;99.90;;;;;;4986376;28;20080;-58
2022/06/29 05:55:10;;;;;;;0.00;0.00;;;18.50;99.90;;;;;;4984432;28;20479;-58
2022/06/29 05:57:36;;;;;;;0.00;0.00;;;18.50;99.90;;;;;;4985655;28;20043;-58
2022/06/29 06:00:04;;;;;;;0.00;0.00;;;18.60;99.90;;;;;;4985715;28;20116;-58
2022/06/29 06:02:30;;;;;;;0.00;0.00;;;18.90;99.90;;;;;;4984860;28;20050;-58
2022/06/29 06:04:56;;;;;;;0.10;0.00;;;19.00;99.90;;;;;;4985843;28;20046;-55
2022/06/29 06:07:21;;;;;;;0.00;0.00;;;19.30;99.90;;;;;;4985639;28;20399;-58
2022/06/29 06:09:47;;;;;;;0.00;0.00;;;19.80;99.90;;;;;;4985697;28;20055;-59
2022/06/29 06:12:13;;;;;;;0.00;0.00;;;20.20;99.90;;;;;;4985819;28;20050;-59
2022/06/29 06:14:38;;;;;;;0.10;0.10;;;20.60;99.90;;;;;;4985768;28;20042;-58
2022/06/29 06:17:04;;;;;;;0.15;0.15;;;20.80;99.90;;;;;;4984734;28;20571;-57
2022/06/29 06:19:30;;;;;;;0.00;0.00;;;21.30;99.90;;;;;;4985321;28;20045;-59
2022/06/29 06:21:55;;;;;;;0.00;0.00;;;21.70;99.90;;;;;;4984919;28;20042;-56
2022/06/29 06:24:21;;;;;;;0.00;0.00;;;22.10;99.90;;;;;;4984929;28;20081;-58
2022/06/29 06:26:46;;;;;;;0.00;0.00;;;22.40;99.90;;;;;;4985776;28;20074;-59
2022/06/29 06:29:12;;;;;;;0.00;0.00;;;22.60;99.90;;;;;;4985458;28;20054;-58
2022/06/29 06:31:38;;;;;;;0.00;0.00;;;22.40;99.90;;;;;;4984444;28;20536;-58
2022/06/29 06:34:04;;;;;;;0.00;0.00;;;22.50;99.90;;;;;;4985331;28;20042;-58
2022/06/29 06:36:30;;;;;;;0.00;0.00;;;22.80;99.90;;;;;;4985280;28;20052;-59
2022/06/29 06:38:55;;;;;;;0.00;0.00;;;22.80;99.90;;;;;;4984611;28;20085;-55
2022/06/29 06:41:21;;;;;;;0.00;0.00;;;23.00;99.90;;;;;;4985190;28;20047;-59
2022/06/29 06:44:06;;;;;;;0.00;0.00;;;22.90;99.90;;;;;;4985737;28;20054;-59
2022/06/29 06:46:33;;;;;;;0.00;0.00;;;23.10;99.90;;;;;;4994685;28;20042;-59
2022/06/29 06:48:59;;;;;;;0.00;0.00;;;23.30;99.90;;;;;;5004534;28;20076;-58
2022/06/29 06:51:25;;;;;;;0.00;0.00;;;23.60;99.90;;;;;;5004497;28;20532;-58
2022/06/29 06:53:51;;;;;;;0.00;0.00;;;23.80;99.90;;;;;;5004633;28;20460;-53
2022/06/29 06:56:17;;;;;;;0.00;0.00;;;23.90;99.90;;;;;;5004348;28;20052;-57
2022/06/29 06:58:43;;;;;;;0.00;0.00;;;24.00;99.90;;;;;;5004881;28;20041;-58
2022/06/29 07:01:10;;;;;;;0.00;0.00;;;24.10;99.90;;;;;;5003469;28;20046;-58
2022/06/29 07:03:36;;;;;;;0.00;0.00;;;23.80;99.90;;;;;;5004177;28;20064;-58
2022/06/29 07:06:04;;;;;;;0.00;0.00;;;24.00;99.90;;;;;;5004446;28;20045;-58
2022/06/29 07:08:31;;;;;;;0.00;0.00;;;24.00;99.90;;;;;;5003208;28;20060;-58
2022/06/29 07:10:58;;;;;;;0.00;0.00;;;23.80;99.90;;;;;;5004419;28;20086;-58
2022/06/29 07:13:24;;;;;;;0.00;0.00;;;23.80;99.90;;;;;;5004139;28;20081;-58
2022/06/29 07:15:50;;;;;;;0.00;0.00;;;23.90;99.90;;;;;;5003840;28;20441;-59
2022/06/29 07:18:15;;;;;;;0.00;0.00;;;24.00;99.90;;;;;;5004648;28;20049;-56
2022/06/29 07:20:41;;;;;;;0.25;0.10;;;23.70;99.90;;;;;;5003358;28;20133;-59
2022/06/29 07:23:07;;;;;;;0.00;0.00;;;23.80;99.90;;;;;;5004522;28;20042;-58
2022/06/29 07:25:32;;;;;;;0.00;0.00;;;23.80;99.90;;;;;;5003004;28;20053;-59
2022/06/29 07:27:58;;;;;;;0.00;0.00;;;23.50;99.90;;;;;;5004423;28;20104;-58
2022/06/29 07:30:24;;;;;;;0.00;0.00;;;23.80;99.90;;;;;;5003976;28;20106;-58
2022/06/29 07:32:50;;;;;;;0.00;0.00;;;23.60;99.90;;;;;;5003878;28;20125;-58
2022/06/29 07:35:15;;;;;;;0.00;0.00;;;24.10;99.90;;;;;;5004472;28;20132;-57
2022/06/29 07:37:42;;;;;;;0.00;0.00;;;24.00;99.90;;;;;;5005165;28;20053;-59
2022/06/29 07:40:09;;;;;;;0.00;0.00;;;24.00;99.90;;;;;;5002572;28;20054;-59
2022/06/29 07:42:35;;;;;;;0.00;0.00;;;23.80;99.90;;;;;;5002778;28;20050;-59
2022/06/29 07:45:05;;;;;;;0.00;0.00;;;24.30;99.90;;;;;;4997672;28;20080;-58
2022/06/29 07:47:31;;;;;;;0.00;0.00;;;24.40;99.90;;;;;;4988917;28;20437;-58
2022/06/29 07:49:58;;;;;;;0.00;0.00;;;24.70;99.90;;;;;;4983103;28;20042;-59
2022/06/29 07:52:24;;;;;;;0.10;0.10;;;24.90;99.90;;;;;;4984620;28;20057;-60
2022/06/29 07:54:50;;;;;;;0.00;0.00;;;24.30;99.90;;;;;;4984807;28;20038;-60
2022/06/29 07:57:15;;;;;;;0.00;0.00;;;24.50;99.90;;;;;;4984538;28;20050;-59
2022/06/29 07:59:41;;;;;;;0.00;0.00;;;24.20;99.90;;;;;;4987150;28;20053;-59
2022/06/29 08:02:07;;;;;;;0.00;0.00;;;24.40;99.90;;;;;;4986993;28;20681;-59
2022/06/29 08:04:32;;;;;;;0.00;0.00;;;24.80;99.90;;;;;;4988007;28;20054;-60
2022/06/29 08:06:58;;;;;;;0.30;0.10;;;24.70;99.90;;;;;;4987787;28;20465;-59
2022/06/29 08:09:24;;;;;;;0.00;0.00;;;24.50;99.90;;;;;;4987760;28;20069;-60
2022/06/29 08:11:51;;;;;;;0.00;0.00;;;24.60;99.90;;;;;;4988176;28;20125;-60
2022/06/29 08:14:17;;;;;;;0.08;0.03;;;24.90;99.90;;;;;;4987334;28;20100;-54
2022/06/29 08:16:43;;;;;;;0.00;0.00;;;24.70;99.90;;;;;;4986355;28;20085;-60
2022/06/29 08:19:09;;;;;;;0.00;0.00;;;24.70;99.90;;;;;;4988017;28;20082;-56
2022/06/29 08:21:34;;;;;;;0.00;0.00;;;24.80;99.90;;;;;;4987765;28;20050;-60
2022/06/29 08:24:00;;;;;;;0.00;0.00;;;24.70;99.90;;;;;;4987665;28;20425;-54
2022/06/29 08:26:26;;;;;;;0.00;0.00;;;25.00;99.90;;;;;;4987835;28;20101;-59
2022/06/29 08:28:52;;;;;;;0.00;0.00;;;25.30;99.90;;;;;;4987678;28;20050;-59
2022/06/29 08:31:18;;;;;;;0.35;0.35;;;25.00;99.90;;;;;;4986339;28;20053;-59
2022/06/29 08:33:43;;;;;;;0.20;0.10;;;25.50;99.90;;;;;;4987963;28;20694;-59
2022/06/29 08:36:09;;;;;;;0.00;0.00;;;25.20;99.90;;;;;;4987480;28;20061;-59
2022/06/29 08:38:35;;;;;;;0.00;0.00;;;25.40;99.90;;;;;;4985787;28;20062;-60
2022/06/29 08:41:01;;;;;;;0.10;0.10;;;25.40;99.90;;;;;;4987081;28;20053;-59
2022/06/29 08:43:27;;;;;;;0.00;0.00;;;25.00;99.90;;;;;;4987475;28;20052;-61
2022/06/29 08:45:53;;;;;;;0.00;0.00;;;25.40;99.90;;;;;;4997711;28;20124;-60
2022/06/29 08:48:19;;;;;;;0.03;0.03;;;25.40;99.90;;;;;;4987247;28;20050;-60
2022/06/29 08:50:55;;;;;;;0.00;0.00;;;25.60;99.90;;;;;;4987451;28;20049;-60
2022/06/29 08:53:22;;;;;;;0.00;0.00;;;25.70;99.90;;;;;;4987240;28;20050;-60
2022/06/29 08:55:50;;;;;;;0.00;0.00;;;25.70;99.90;;;;;;4987156;28;20046;-60
2022/06/29 08:58:21;;;;;;;0.00;0.00;;;26.10;99.90;;;;;;4986717;28;20058;-60
2022/06/29 09:00:49;;;;;;;0.00;0.00;;;25.60;99.90;;;;;;4986590;28;20125;-62
2022/06/29 09:03:19;;;;;;;1.08;0.35;;;25.30;99.90;;;;;;4986076;28;20086;-60
2022/06/29 09:05:54;;;;;;;0.00;0.00;;;25.30;99.90;;;;;;4987360;28;20134;-60
2022/06/29 09:08:21;;;;;;;0.03;0.03;;;25.50;99.90;;;;;;4986827;28;20409;-60
2022/06/29 09:10:48;;;;;;;0.10;0.10;;;25.70;99.90;;;;;;4986312;28;20048;-60
2022/06/29 09:13:22;;;;;;;0.00;0.00;;;25.60;99.90;;;;;;4985368;28;20069;-61
2022/06/29 09:15:59;;;;;;;0.13;0.10;;;25.80;99.90;;;;;;4986513;28;20082;-60
2022/06/29 09:18:32;;;;;;;0.00;0.00;;;25.70;99.90;;;;;;4986285;28;20061;-60
2022/06/29 09:21:00;;;;;;;0.20;0.10;;;25.50;99.90;;;;;;5001694;28;20145;-59
2022/06/29 09:23:27;;;;;;;0.10;0.10;;;25.20;99.90;;;;;;4986434;28;20050;-60
2022/06/29 09:25:53;;;;;;;0.00;0.00;;;25.70;99.90;;;;;;4986322;28;20050;-60
2022/06/29 09:28:31;;;;;;;0.15;0.10;;;26.20;99.90;;;;;;4986305;28;20049;-60
2022/06/29 09:30:58;;;;;;;0.05;0.05;;;26.50;99.90;;;;;;4984465;28;20512;-59
2022/06/29 09:33:26;;;;;;;0.00;0.00;;;26.50;99.90;;;;;;4986077;28;20061;-61
2022/06/29 09:36:05;;;;;;;0.15;0.05;;;26.00;99.90;;;;;;4986350;28;20505;-60
2022/06/29 09:38:31;;;;;;;0.75;0.20;;;25.60;99.90;;;;;;4986218;28;20050;-61
2022/06/29 09:40:58;;;;;;;0.22;0.20;;;25.70;99.90;;;;;;4985980;28;20038;-60
2022/06/29 09:43:24;;;;;;;0.00;0.00;;;25.80;99.90;;;;;;4986461;28;20074;-60
2022/06/29 09:45:51;;;;;;;0.10;0.10;;;26.50;99.90;;;;;;4996440;28;20057;-60
2022/06/29 09:48:21;;;;;;;0.10;0.10;;;26.60;99.90;;;;;;4985724;28;20050;-61
2022/06/29 09:50:49;;;;;;;0.28;0.25;;;27.10;99.90;;;;;;4986733;28;20057;-60
2022/06/29 09:53:17;;;;;;;0.10;0.10;;;27.50;99.90;;;;;;4986459;28;20046;-60
2022/06/29 09:55:43;;;;;;;0.00;0.00;;;27.80;99.90;;;;;;4986558;28;20045;-60
2022/06/29 09:58:10;;;;;;;0.10;0.10;;;27.90;99.90;;;;;;4985792;28;20046;-59
2022/06/29 10:03:22;;;;;;;0.22;0.17;;;27.10;99.90;;;;;;4985352;28;20081;-60
2022/06/29 10:05:54;;;;;;;0.00;0.00;;;27.60;99.90;;;;;;4986061;28;20126;-61
2022/06/29 10:08:20;;;;;;;0.10;0.10;;;27.50;99.90;;;;;;4985365;28;20712;-60
2022/06/29 10:10:54;;;;;;;0.00;0.00;;;27.30;99.90;;;;;;4986059;28;20047;-59
2022/06/29 10:13:42;;;;;;;0.43;0.30;;;27.60;99.90;;;;;;4985453;28;20046;-60
2022/06/29 10:16:15;;;;;;;0.00;0.00;;;28.30;99.90;;;;;;4983494;28;20065;-61
2022/06/29 10:18:50;;;;;;;0.13;0.10;;;27.80;99.90;;;;;;4986256;28;20046;-61
2022/06/29 10:21:23;;;;;;;0.00;0.00;;;27.50;99.90;;;;;;4984909;28;20093;-61
2022/06/29 10:23:56;;;;;;;0.10;0.10;;;27.90;99.90;;;;;;4985319;28;20050;-60
2022/06/29 10:26:30;;;;;;;0.00;0.00;;;27.70;99.90;;;;;;4985304;28;20066;-60
2022/06/29 10:29:05;;;;;;;0.00;0.00;;;27.90;99.90;;;;;;4985276;28;20109;-60
2022/06/29 10:31:59;;;;;;;0.10;0.10;;;28.60;99.90;;;;;;4984749;28;20038;-60
2022/06/29 10:34:28;;;;;;;;;;;28.60;99.90;;;;;;4985465;28;20121;-61
2022/06/29 10:37:02;;;;;;;0.20;0.13;;;28.60;99.90;;;;;;4985369;28;20020;-60
2022/06/29 10:39:49;;;;;;;0.03;0.03;;;28.90;99.90;;;;;;4985065;28;20662;-62
2022/06/29 10:45:21;;;;;;;0.00;0.00;;;28.80;99.90;;;;;;4990879;28;20081;-59
2022/06/29 10:48:07;;;;;;;0.00;0.00;;;29.10;99.90;;;;;;4988585;28;20058;-61
2022/06/29 10:50:38;;;;;;;0.10;0.10;;;29.60;99.90;;;;;;4984408;28;20042;-61
2022/06/29 10:53:06;;;;;;;0.00;0.00;;;28.60;99.90;;;;;;4983787;28;20054;-60
2022/06/29 10:55:33;;;;;;;0.00;0.00;;;28.20;99.90;;;;;;4985262;28;20458;-60
2022/06/29 10:58:00;;;;;;;0.03;0.03;;;28.20;99.90;;;;;;4984801;28;20484;-61
2022/06/29 11:00:29;;;;;;;0.20;0.10;;;28.50;99.90;;;;;;4984505;28;20080;-61
2022/06/29 11:02:55;;;;;;;0.00;0.00;;;29.10;99.90;;;;;;4984686;28;20069;-60
2022/06/29 11:05:21;;;;;;;0.10;0.10;;;28.70;99.90;;;;;;4984605;28;20386;-60
2022/06/29 11:13:26;;;;;;;0.13;0.10;;;28.10;99.90;;;;;;4984928;28;20054;-61
2022/06/29 11:15:54;;;;;;;0.10;0.10;;;27.80;99.90;;;;;;4984486;28;20042;-59
2022/06/29 11:18:27;;;;;;;0.10;0.10;;;27.60;99.90;;;;;;4984586;28;20046;-60
2022/06/29 11:20:54;;;;;;;0.20;0.20;;;27.10;99.90;;;;;;4985098;28;20487;-60
2022/06/29 11:23:30;;;;;;;0.10;0.10;;;27.30;99.90;;;;;;4984738;28;20062;-60
2022/06/29 11:25:56;;;;;;;0.00;0.00;;;27.40;99.90;;;;;;4985032;28;20061;-59
2022/06/29 11:28:27;;;;;;;0.00;0.00;;;27.40;99.90;;;;;;4984471;28;20050;-61
2022/06/29 11:31:09;;;;;;;0.10;0.10;;;27.60;99.90;;;;;;4984257;28;20038;-60
2022/06/29 11:33:43;;;;;;;0.10;0.10;;;27.40;99.90;;;;;;4985431;28;21238;-61
2022/06/29 11:36:41;;;;;;;0.00;0.00;;;27.70;99.90;;;;;;4988632;28;20062;-60
2022/06/29 11:39:06;;;;;;;0.10;0.10;;;27.80;99.90;;;;;;4983582;28;20080;-61
2022/06/29 11:44:24;;;;;;;;;;;28.00;99.90;;;;;;4991210;28;20041;-58
2022/06/29 11:46:51;;;;;;;0.00;0.00;;;27.70;99.90;;;;;;4996179;28;19928;-60
2022/06/29 11:52:05;;;;;;;0.52;0.10;;;27.00;99.90;;;;;;4988244;28;20054;-61
2022/06/29 11:54:50;;;;;;;0.00;0.00;;;27.20;99.90;;;;;;4988121;28;20405;-62
2022/06/29 11:57:17;;;;;;;0.10;0.10;;;27.70;99.90;;;;;;4988535;28;20057;-60
2022/06/29 11:59:44;;;;;;;0.05;0.05;;;27.80;99.90;;;;;;4988524;28;20437;-60
2022/06/29 12:02:12;;;;;;;0.08;0.08;;;28.10;99.90;;;;;;4986861;28;20073;-60
2022/06/29 12:04:38;;;;;;;0.00;0.00;;;28.00;99.90;;;;;;4988325;28;20042;-60
2022/06/29 12:07:16;;;;;;;0.00;0.00;;;27.90;99.90;;;;;;4988142;28;20050;-60
2022/06/29 12:09:43;;;;;;;0.10;0.08;;;27.90;99.90;;;;;;4987974;28;20054;-60
2022/06/29 12:12:10;;;;;;;0.30;0.17;;;27.80;99.90;;;;;;4987824;28;20064;-60
2022/06/29 12:14:40;;;;;;;0.25;0.25;;;27.90;99.90;;;;;;4986717;28;20054;-61
2022/06/29 12:17:07;;;;;;;0.50;0.20;;;27.60;99.90;;;;;;4986656;28;20065;-67
2022/06/29 12:19:33;;;;;;;0.35;0.30;;;27.80;99.90;;;;;;4998045;28;20157;-54
2022/06/29 12:21:59;;;;;;;0.73;0.30;;;28.10;99.90;;;;;;5007222;28;20089;-63
2022/06/29 12:24:26;;;;;;;0.00;0.00;;;28.30;99.90;;;;;;5006964;28;20070;-64
2022/06/29 12:26:52;;;;;;;0.47;0.20;;;28.90;99.90;;;;;;5006836;28;20116;-63
2022/06/29 12:29:18;;;;;;;0.22;0.20;;;28.70;99.90;;;;;;5006828;28;20389;-63
2022/06/29 12:31:45;;;;;;;0.00;0.00;;;28.30;99.90;;;;;;4999326;28;20042;-64
2022/06/29 12:34:12;;;;;;;0.43;0.30;;;28.40;99.90;;;;;;5002959;28;20048;-62
2022/06/29 12:36:39;;;;;;;0.57;0.30;;;28.70;99.90;;;;;;5005843;28;20128;-63
2022/06/29 12:39:06;;;;;;;0.85;0.38;;;28.60;99.90;;;;;;5005903;28;20052;-63
2022/06/29 12:41:33;;;;;;;0.10;0.10;;;28.30;99.90;;;;;;5005236;28;20042;-62
2022/06/29 12:43:59;;;;;;;0.10;0.10;;;28.20;99.90;;;;;;5004429;28;20421;-62
2022/06/29 12:46:27;;;;;;;0.10;0.10;;;28.60;99.90;;;;;;4994948;28;20045;-63
2022/06/29 12:48:54;;;;;;;0.63;0.63;;;28.80;99.90;;;;;;4986582;28;20524;-62
2022/06/29 12:51:20;;;;;;;0.00;0.00;;;28.50;99.90;;;;;;4986862;28;20054;-63
2022/06/29 12:53:46;;;;;;;0.00;0.00;;;28.40;99.90;;;;;;5002106;28;20042;-62
2022/06/29 12:56:12;;;;;;;0.30;0.30;;;28.10;99.90;;;;;;4987558;28;20056;-63
2022/06/29 12:58:37;;;;;;;0.10;0.10;;;27.70;99.90;;;;;;4987032;28;20049;-64
2022/06/29 13:01:03;;;;;;;0.10;0.10;;;27.70;99.90;;;;;;4986028;28;20054;-63
2022/06/29 13:03:29;;;;;;;0.08;0.08;;;27.60;99.90;;;;;;4990959;28;20069;-63
2022/06/29 13:05:54;;;;;;;0.35;0.25;;;27.70;99.90;;;;;;4992318;28;20054;-63
2022/06/29 13:08:20;;;;;;;0.10;0.10;;;27.70;99.90;;;;;;4992374;28;20054;-63